createdAt,value
2018-12-30T00:00:05.136Z,21.13
2018-12-30T00:02:33.589Z,19.83
2018-12-30T00:05:02.350Z,19.90
2018-12-30T00:07:30.972Z,20.93
2018-12-30T00:09:59.313Z,20.00
2018-12-30T00:12:27.895Z,20.23
2018-12-30T00:14:56.309Z,18.83
2018-12-30T00:17:25.409Z,19.70
2018-12-30T00:19:54.258Z,20.30
2018-12-30T00:22:22.671Z,19.13
2018-12-30T00:24:51.028Z,20.70
2018-12-30T00:27:19.596Z,20.43
2018-12-30T00:29:48.008Z,21.10
2018-12-30T00:32:16.363Z,19.37
2018-12-30T00:34:44.834Z,20.00
2018-12-30T00:37:13.415Z,20.33
2018-12-30T00:39:41.911Z,18.77
2018-12-30T00:42:10.303Z,20.07
2018-12-30T00:44:38.861Z,18.67
2018-12-30T00:47:07.342Z,18.13
2018-12-30T00:49:35.647Z,18.50
2018-12-30T00:52:04.297Z,19.37
2018-12-30T00:54:32.943Z,16.93
2018-12-30T00:57:01.463Z,17.07
2018-12-30T00:59:29.976Z,16.13
2018-12-30T01:01:58.696Z,16.53
2018-12-30T01:04:27.142Z,16.80
2018-12-30T01:06:55.429Z,18.10
2018-12-30T01:09:23.971Z,17.47
2018-12-30T01:11:52.378Z,16.30
2018-12-30T01:14:20.874Z,15.70
2018-12-30T01:16:49.548Z,16.60
2018-12-30T01:19:17.803Z,15.93
2018-12-30T01:21:46.370Z,18.13
2018-12-30T01:24:14.880Z,17.20
2018-12-30T01:26:43.253Z,18.43
2018-12-30T01:29:11.811Z,20.20
2018-12-30T01:31:40.325Z,20.80
2018-12-30T01:34:08.631Z,20.23
2018-12-30T01:36:37.150Z,17.93
2018-12-30T01:39:07.168Z,17.33
2018-12-30T01:41:35.492Z,16.37
2018-12-30T01:44:04.330Z,17.27
2018-12-30T01:46:32.976Z,15.13
2018-12-30T01:49:01.497Z,14.37
2018-12-30T01:51:33.190Z,15.30
2018-12-30T01:54:00.125Z,14.57
2018-12-30T01:56:28.931Z,14.70
2018-12-30T01:58:57.325Z,14.43
2018-12-30T02:01:25.779Z,13.93
2018-12-30T02:03:54.152Z,14.00
2018-12-30T02:06:23.033Z,13.80
2018-12-30T02:08:51.334Z,14.03
2018-12-30T02:11:20.010Z,12.63
2018-12-30T02:13:48.280Z,12.27
2018-12-30T02:16:16.931Z,13.77
2018-12-30T02:18:45.348Z,12.47
2018-12-30T02:21:13.620Z,13.43
2018-12-30T02:23:42.456Z,12.70
2018-12-30T02:26:10.899Z,12.53
2018-12-30T02:28:39.334Z,12.50
2018-12-30T02:31:07.850Z,11.80
2018-12-30T02:33:36.227Z,12.40
2018-12-30T02:36:05.018Z,12.17
2018-12-30T02:38:33.470Z,11.83
2018-12-30T02:41:01.871Z,12.03
2018-12-30T02:43:30.217Z,12.30
2018-12-30T02:45:58.800Z,11.07
2018-12-30T02:48:27.314Z,11.50
2018-12-30T02:50:55.660Z,11.33
2018-12-30T02:53:24.226Z,11.77
2018-12-30T02:55:52.544Z,11.97
2018-12-30T02:58:21.100Z,11.67
2018-12-30T03:00:49.988Z,11.47
2018-12-30T03:03:18.470Z,13.03
2018-12-30T03:05:46.882Z,11.80
2018-12-30T03:08:15.533Z,11.93
2018-12-30T03:10:43.846Z,11.63
2018-12-30T03:13:12.800Z,11.73
2018-12-30T03:15:41.279Z,11.73
2018-12-30T03:18:09.600Z,11.70
2018-12-30T03:20:38.139Z,11.40
2018-12-30T03:23:06.627Z,11.33
2018-12-30T03:25:35.408Z,11.93
2018-12-30T03:28:03.819Z,11.00
2018-12-30T03:30:32.000Z,12.33
2018-12-30T03:33:00.468Z,12.00
2018-12-30T03:35:28.919Z,13.33
2018-12-30T03:37:57.401Z,12.30
2018-12-30T03:40:25.709Z,13.40
2018-12-30T03:42:54.000Z,13.87
2018-12-30T03:45:22.535Z,15.60
2018-12-30T03:47:51.021Z,16.97
2018-12-30T03:50:19.641Z,16.63
2018-12-30T03:52:48.182Z,15.97
2018-12-30T03:55:16.600Z,14.93
2018-12-30T03:57:44.956Z,13.23
2018-12-30T04:00:13.364Z,13.10
2018-12-30T04:02:41.923Z,13.77
2018-12-30T04:05:10.208Z,13.67
2018-12-30T04:07:38.550Z,13.33
2018-12-30T04:10:06.864Z,12.57
2018-12-30T04:12:35.449Z,10.80
2018-12-30T04:15:04.416Z,11.17
2018-12-30T04:17:32.879Z,11.73
2018-12-30T04:20:01.284Z,12.20
2018-12-30T04:22:29.840Z,12.57
2018-12-30T04:24:58.432Z,13.63
2018-12-30T04:27:26.740Z,13.33
2018-12-30T04:29:55.101Z,14.10
2018-12-30T04:32:23.661Z,13.57
2018-12-30T04:34:52.173Z,14.93
2018-12-30T04:37:20.700Z,14.23
2018-12-30T04:39:49.002Z,15.57
2018-12-30T04:42:17.377Z,14.93
2018-12-30T04:44:45.994Z,15.43
2018-12-30T04:47:14.704Z,15.27
2018-12-30T04:49:43.138Z,15.07
2018-12-30T04:52:11.340Z,15.20
2018-12-30T04:54:39.604Z,15.43
2018-12-30T04:57:08.156Z,15.73
2018-12-30T04:59:36.637Z,16.83
2018-12-30T05:02:05.083Z,16.10
2018-12-30T05:04:33.597Z,16.57
2018-12-30T05:07:02.091Z,16.03
2018-12-30T05:09:30.389Z,17.77
2018-12-30T05:11:58.674Z,17.30
2018-12-30T05:14:27.317Z,17.80
2018-12-30T05:16:56.020Z,18.37
2018-12-30T05:19:24.479Z,19.20
2018-12-30T05:21:52.898Z,20.23
2018-12-30T05:24:21.371Z,21.03
2018-12-30T05:26:49.717Z,21.03
2018-12-30T05:29:18.302Z,21.07
2018-12-30T05:31:46.716Z,22.27
2018-12-30T05:34:15.011Z,22.47
2018-12-30T05:36:43.535Z,23.63
2018-12-30T05:39:11.913Z,23.60
2018-12-30T05:41:40.330Z,24.03
2018-12-30T05:44:08.703Z,24.23
2018-12-30T05:46:37.251Z,23.93
2018-12-30T05:49:05.764Z,22.43
2018-12-30T05:51:34.263Z,23.30
2018-12-30T05:54:02.806Z,22.20
2018-12-30T05:56:32.000Z,25.07
2018-12-30T05:59:00.580Z,22.33
2018-12-30T06:01:28.886Z,24.27
2018-12-30T06:03:57.073Z,25.90
2018-12-30T06:06:26.657Z,25.00
2018-12-30T06:08:55.425Z,26.77
2018-12-30T06:11:23.928Z,33.50
2018-12-30T06:13:52.480Z,38.40
2018-12-30T06:16:20.879Z,40.67
2018-12-30T06:18:49.300Z,42.43
2018-12-30T06:21:18.126Z,57.80
2018-12-30T06:23:46.442Z,55.87
2018-12-30T06:26:14.817Z,46.47
2018-12-30T06:28:42.881Z,35.40
2018-12-30T06:31:11.176Z,35.43
2018-12-30T06:33:39.654Z,34.83
2018-12-30T06:36:08.192Z,36.20
2018-12-30T06:38:36.773Z,39.00
2018-12-30T06:41:05.285Z,40.57
2018-12-30T06:43:33.739Z,41.23
2018-12-30T06:46:21.362Z,43.20
2018-12-30T06:48:49.944Z,45.47
2018-12-30T06:51:18.262Z,58.40
2018-12-30T06:53:46.736Z,58.33
2018-12-30T06:56:15.079Z,57.93
2018-12-30T06:58:43.597Z,53.07
2018-12-30T07:01:12.042Z,55.90
2018-12-30T07:03:40.623Z,57.67
2018-12-30T07:06:08.839Z,58.13
2018-12-30T07:08:37.112Z,57.40
2018-12-30T07:11:05.657Z,50.73
2018-12-30T07:13:34.181Z,50.83
2018-12-30T07:16:02.717Z,47.23
2018-12-30T07:18:30.996Z,44.93
2018-12-30T07:20:59.678Z,45.07
2018-12-30T07:23:28.093Z,42.40
2018-12-30T07:25:56.641Z,37.30
2018-12-30T07:28:44.272Z,33.20
2018-12-30T07:31:12.725Z,28.80
2018-12-30T07:33:40.961Z,26.17
2018-12-30T07:36:09.505Z,23.50
2018-12-30T07:38:38.036Z,24.17
2018-12-30T07:41:06.386Z,21.60
2018-12-30T07:43:34.946Z,19.00
2018-12-30T07:46:03.576Z,18.93
2018-12-30T07:48:31.826Z,25.50
2018-12-30T07:51:00.388Z,29.73
2018-12-30T07:53:28.901Z,29.53
2018-12-30T07:55:57.236Z,29.57
2018-12-30T07:58:25.828Z,26.67
2018-12-30T08:00:54.412Z,24.67
2018-12-30T08:03:22.811Z,22.87
2018-12-30T08:05:51.207Z,21.70
2018-12-30T08:08:19.447Z,20.77
2018-12-30T08:10:48.127Z,22.30
2018-12-30T08:13:16.531Z,22.97
2018-12-30T08:15:44.943Z,22.37
2018-12-30T08:18:13.466Z,25.33
2018-12-30T08:20:41.772Z,27.67
2018-12-30T08:23:10.429Z,32.10
2018-12-30T08:25:38.944Z,32.30
2018-12-30T08:28:07.326Z,33.83
2018-12-30T08:30:35.971Z,34.87
2018-12-30T08:33:04.554Z,36.43
2018-12-30T08:35:34.793Z,39.87
2018-12-30T08:38:03.357Z,40.67
2018-12-30T08:40:31.675Z,42.63
2018-12-30T08:43:21.003Z,42.97
2018-12-30T08:45:49.692Z,43.07
2018-12-30T08:48:18.095Z,41.73
2018-12-30T08:50:46.554Z,42.20
2018-12-30T08:53:15.232Z,42.03
2018-12-30T08:55:43.637Z,44.57
2018-12-30T08:58:12.093Z,44.10
2018-12-30T09:00:40.572Z,44.03
2018-12-30T09:03:08.884Z,44.17
2018-12-30T09:05:37.228Z,45.77
2018-12-30T09:08:05.844Z,44.27
2018-12-30T09:10:34.216Z,44.00
2018-12-30T09:13:03.076Z,42.80
2018-12-30T09:15:31.490Z,43.33
2018-12-30T09:17:59.853Z,43.23
2018-12-30T09:20:28.343Z,42.93
2018-12-30T09:22:56.896Z,43.57
2018-12-30T09:25:25.304Z,46.83
2018-12-30T09:27:53.699Z,47.80
2018-12-30T09:30:22.233Z,48.23
2018-12-30T09:32:52.200Z,45.77
2018-12-30T09:35:20.725Z,41.87
2018-12-30T09:37:49.312Z,39.13
2018-12-30T09:40:17.725Z,41.00
2018-12-30T09:42:46.183Z,37.67
2018-12-30T09:45:14.566Z,32.17
2018-12-30T09:47:42.771Z,27.45
2018-12-30T09:50:11.408Z,26.53
2018-12-30T09:52:39.820Z,22.73
2018-12-30T09:55:08.202Z,23.33
2018-12-30T09:57:36.848Z,22.97
2018-12-30T10:00:05.398Z,19.93
2018-12-30T10:02:33.728Z,16.93
2018-12-30T10:05:03.054Z,17.33
2018-12-30T10:07:31.415Z,18.43
2018-12-30T10:09:59.968Z,18.87
2018-12-30T10:12:28.480Z,19.17
2018-12-30T10:14:56.962Z,28.87
2018-12-30T10:17:25.408Z,29.73
2018-12-30T10:19:53.994Z,23.60
2018-12-30T10:22:22.514Z,28.07
2018-12-30T10:24:50.803Z,19.83
2018-12-30T10:27:19.432Z,23.30
2018-12-30T10:29:47.849Z,25.30
2018-12-30T10:32:16.306Z,25.43
2018-12-30T10:34:44.841Z,24.27
2018-12-30T10:37:13.252Z,24.07
2018-12-30T10:39:41.682Z,23.37
2018-12-30T10:42:10.108Z,26.17
2018-12-30T10:44:38.517Z,27.87
2018-12-30T10:47:07.173Z,28.13
2018-12-30T10:49:35.697Z,27.23
2018-12-30T10:52:03.971Z,27.93
2018-12-30T10:54:32.267Z,27.67
2018-12-30T10:57:00.668Z,28.10
2018-12-30T10:59:29.267Z,28.03
2018-12-30T11:01:57.707Z,30.00
2018-12-30T11:04:26.036Z,27.53
2018-12-30T11:06:54.646Z,29.13
2018-12-30T11:09:23.121Z,28.50
2018-12-30T11:11:51.467Z,27.67
2018-12-30T11:14:19.764Z,26.87
2018-12-30T11:16:48.322Z,27.33
2018-12-30T11:19:16.847Z,23.93
2018-12-30T11:21:45.426Z,21.73
2018-12-30T11:24:13.787Z,18.13
2018-12-30T11:26:42.244Z,18.40
2018-12-30T11:29:10.829Z,23.00
2018-12-30T11:31:39.053Z,13.90
2018-12-30T11:34:07.584Z,13.87
2018-12-30T11:36:35.983Z,18.23
2018-12-30T11:39:05.859Z,23.00
2018-12-30T11:41:34.558Z,21.40
2018-12-30T11:44:02.977Z,20.07
2018-12-30T11:46:31.340Z,21.03
2018-12-30T11:48:59.691Z,14.33
2018-12-30T11:51:28.016Z,13.17
2018-12-30T11:53:56.654Z,15.43
2018-12-30T11:56:25.175Z,19.43
2018-12-30T11:58:53.553Z,21.20
2018-12-30T12:01:22.095Z,17.70
2018-12-30T12:03:50.593Z,20.57
2018-12-30T12:06:19.231Z,21.93
2018-12-30T12:08:47.846Z,20.70
2018-12-30T12:11:16.427Z,22.20
2018-12-30T12:14:04.055Z,22.50
2018-12-30T12:16:32.505Z,23.57
2018-12-30T12:19:00.857Z,23.77
2018-12-30T12:21:29.313Z,23.97
2018-12-30T12:23:57.877Z,22.63
2018-12-30T12:26:26.187Z,22.63
2018-12-30T12:28:54.449Z,20.77
2018-12-30T12:31:22.913Z,19.53
2018-12-30T12:33:51.412Z,27.03
2018-12-30T12:36:19.866Z,17.80
2018-12-30T12:38:48.503Z,16.97
2018-12-30T12:41:16.765Z,17.93
2018-12-30T12:43:45.228Z,18.00
2018-12-30T12:46:13.508Z,16.93
2018-12-30T12:48:42.166Z,20.33
2018-12-30T12:51:10.584Z,23.43
2018-12-30T12:53:39.120Z,22.27
2018-12-30T12:56:07.610Z,28.83
2018-12-30T12:58:36.230Z,23.30
2018-12-30T13:01:06.319Z,22.60
2018-12-30T13:03:34.721Z,23.80
2018-12-30T13:06:03.476Z,23.83
2018-12-30T13:08:31.964Z,24.57
2018-12-30T13:11:00.355Z,25.07
2018-12-30T13:13:28.916Z,25.67
2018-12-30T13:16:03.336Z,30.83
2018-12-30T13:18:27.844Z,24.87
2018-12-30T13:20:56.405Z,24.17
2018-12-30T13:23:24.797Z,21.80
2018-12-30T13:25:53.079Z,21.37
2018-12-30T13:28:21.641Z,22.17
2018-12-30T13:30:50.177Z,22.17
2018-12-30T13:33:18.531Z,20.10
2018-12-30T13:35:47.128Z,19.50
2018-12-30T13:38:15.767Z,16.63
2018-12-30T13:40:44.088Z,16.20
2018-12-30T13:43:12.468Z,14.10
2018-12-30T13:45:41.208Z,13.27
2018-12-30T13:48:09.622Z,14.00
2018-12-30T13:50:38.111Z,13.67
2018-12-30T13:53:09.623Z,10.47
2018-12-30T13:55:38.203Z,8.47
2018-12-30T13:58:06.729Z,9.93
2018-12-30T14:00:35.043Z,10.37
2018-12-30T14:03:03.745Z,8.00
2018-12-30T14:05:32.260Z,8.17
2018-12-30T14:08:00.624Z,52.17
2018-12-30T14:10:28.880Z,15.37
2018-12-30T14:12:57.400Z,9.93
2018-12-30T14:15:25.951Z,10.67
2018-12-30T14:17:54.343Z,13.73
2018-12-30T14:20:22.801Z,11.43
2018-12-30T14:22:51.284Z,9.83
2018-12-30T14:25:19.579Z,8.87
2018-12-30T14:27:48.036Z,8.97
2018-12-30T14:30:16.449Z,8.23
2018-12-30T14:32:44.817Z,7.77
2018-12-30T14:35:13.272Z,6.80
2018-12-30T14:37:41.855Z,6.40
2018-12-30T14:40:10.306Z,6.20
2018-12-30T14:42:38.635Z,6.67
2018-12-30T14:45:08.325Z,5.80
2018-12-30T14:47:36.904Z,6.10
2018-12-30T14:50:07.741Z,7.63
2018-12-30T14:52:36.259Z,6.60
2018-12-30T14:55:04.936Z,6.57
2018-12-30T14:57:33.218Z,6.50
2018-12-30T15:00:01.728Z,6.73
2018-12-30T15:02:30.345Z,6.83
2018-12-30T15:04:58.757Z,7.07
2018-12-30T15:07:27.196Z,7.23
2018-12-30T15:09:55.622Z,6.97
2018-12-30T15:12:24.165Z,8.43
2018-12-30T15:14:52.587Z,7.87
2018-12-30T15:17:20.852Z,7.77
2018-12-30T15:19:49.401Z,7.80
2018-12-30T15:22:17.925Z,9.37
2018-12-30T15:24:46.346Z,7.40
2018-12-30T15:27:14.843Z,8.27
2018-12-30T15:29:43.323Z,11.07
2018-12-30T15:32:11.735Z,9.30
2018-12-30T15:34:40.126Z,8.33
2018-12-30T15:37:08.867Z,8.93
2018-12-30T15:39:37.344Z,8.90
2018-12-30T15:42:05.883Z,9.43
2018-12-30T15:44:34.412Z,9.00
2018-12-30T15:47:02.992Z,9.60
2018-12-30T15:49:31.312Z,9.27
2018-12-30T15:51:59.789Z,9.23
2018-12-30T15:54:28.095Z,9.97
2018-12-30T15:56:56.332Z,9.20
2018-12-30T15:59:24.752Z,10.27
2018-12-30T16:04:42.646Z,11.07
2018-12-30T16:07:11.006Z,10.13
2018-12-30T16:09:39.591Z,10.83
2018-12-30T16:12:08.088Z,11.83
2018-12-30T16:14:36.276Z,10.40
2018-12-30T16:17:04.650Z,9.90
2018-12-30T16:19:33.205Z,11.20
2018-12-30T16:22:01.617Z,12.47
2018-12-30T16:24:30.000Z,12.63
2018-12-30T16:26:58.342Z,14.27
2018-12-30T16:29:26.637Z,13.97
2018-12-30T16:31:55.195Z,14.13
2018-12-30T16:34:23.688Z,14.73
2018-12-30T16:36:52.084Z,16.70
2018-12-30T16:39:20.365Z,16.70
2018-12-30T16:41:48.904Z,16.20
2018-12-30T16:44:17.495Z,15.60
2018-12-30T16:46:45.932Z,17.67
2018-12-30T16:49:14.285Z,18.43
2018-12-30T16:51:42.564Z,20.27
2018-12-30T16:54:10.729Z,18.40
2018-12-30T16:56:39.300Z,13.43
2018-12-30T16:59:07.797Z,7.90
2018-12-30T17:01:36.077Z,9.97
2018-12-30T17:04:04.928Z,15.27
2018-12-30T17:06:34.001Z,15.50
2018-12-30T17:09:04.184Z,15.97
2018-12-30T17:11:32.729Z,17.63
2018-12-30T17:14:01.120Z,21.03
2018-12-30T17:16:29.308Z,20.17
2018-12-30T17:18:57.860Z,20.33
2018-12-30T17:21:26.285Z,32.27
2018-12-30T17:23:54.752Z,22.83
2018-12-30T17:26:23.197Z,20.57
2018-12-30T17:28:51.711Z,20.57
2018-12-30T17:31:20.088Z,19.40
2018-12-30T17:33:48.436Z,19.80
2018-12-30T17:36:16.871Z,21.40
2018-12-30T17:38:46.368Z,21.17
2018-12-30T17:41:14.697Z,21.87
2018-12-30T17:43:43.379Z,24.33
2018-12-30T17:46:18.139Z,30.13
2018-12-30T17:48:41.997Z,22.67
2018-12-30T17:51:10.307Z,21.33
2018-12-30T17:53:38.551Z,21.20
2018-12-30T17:56:07.383Z,22.57
2018-12-30T17:58:35.817Z,22.20
2018-12-30T18:01:04.200Z,21.70
2018-12-30T18:03:32.552Z,22.40
2018-12-30T18:06:01.174Z,20.90
2018-12-30T18:08:29.435Z,23.23
2018-12-30T18:10:57.772Z,25.70
2018-12-30T18:13:26.373Z,26.43
2018-12-30T18:15:54.671Z,27.07
2018-12-30T18:18:23.141Z,27.40
2018-12-30T18:21:11.064Z,27.23
2018-12-30T18:23:39.546Z,27.80
2018-12-30T18:26:08.243Z,27.97
2018-12-30T18:28:36.633Z,28.97
2018-12-30T18:31:05.194Z,30.43
2018-12-30T18:33:33.774Z,30.10
2018-12-30T18:36:02.191Z,29.73
2018-12-30T18:38:30.638Z,32.60
2018-12-30T18:40:59.035Z,28.83
2018-12-30T18:43:27.493Z,28.30
2018-12-30T18:45:56.109Z,28.00
2018-12-30T18:48:24.511Z,30.20
2018-12-30T18:50:52.854Z,28.17
2018-12-30T18:53:21.346Z,30.20
2018-12-30T18:55:49.729Z,28.40
2018-12-30T18:58:18.085Z,26.67
2018-12-30T19:00:46.452Z,31.87
2018-12-30T19:03:14.752Z,31.90
2018-12-30T19:05:43.302Z,30.53
2018-12-30T19:08:11.817Z,31.80
2018-12-30T19:10:40.189Z,32.37
2018-12-30T19:13:08.465Z,33.27
2018-12-30T19:15:37.019Z,33.03
2018-12-30T19:18:05.423Z,38.10
2018-12-30T19:20:33.732Z,31.70
2018-12-30T19:23:02.169Z,29.43
2018-12-30T19:25:30.447Z,27.93
2018-12-30T19:27:59.360Z,27.17
2018-12-30T19:30:27.696Z,25.83
2018-12-30T19:32:56.012Z,25.37
2018-12-30T19:35:24.320Z,23.60
2018-12-30T19:37:52.833Z,24.47
2018-12-30T19:40:21.352Z,28.80
2018-12-30T19:42:49.731Z,25.20
2018-12-30T19:45:18.103Z,24.53
2018-12-30T19:47:46.653Z,22.33
2018-12-30T19:50:15.075Z,20.40
2018-12-30T19:52:43.439Z,19.00
2018-12-30T19:55:11.728Z,17.10
2018-12-30T19:57:40.103Z,16.30
2018-12-30T20:00:10.419Z,14.43
2018-12-30T20:02:38.992Z,13.63
2018-12-30T20:05:07.546Z,13.13
2018-12-30T20:07:36.185Z,12.47
2018-12-30T20:10:05.370Z,12.53
2018-12-30T20:12:33.840Z,13.50
2018-12-30T20:15:02.287Z,13.27
2018-12-30T20:17:30.870Z,12.80
2018-12-30T20:19:59.576Z,10.87
2018-12-30T20:22:27.937Z,11.03
2018-12-30T20:24:56.523Z,11.27
2018-12-30T20:27:25.032Z,12.70
2018-12-30T20:29:53.478Z,11.67
2018-12-30T20:32:21.684Z,11.40
2018-12-30T20:34:50.233Z,11.73
2018-12-30T20:37:18.744Z,10.40
2018-12-30T20:39:47.112Z,11.03
2018-12-30T20:42:15.407Z,10.80
2018-12-30T20:44:43.776Z,10.50
2018-12-30T20:47:12.327Z,10.07
2018-12-30T20:49:40.847Z,10.03
2018-12-30T20:52:09.200Z,10.13
2018-12-30T20:54:37.492Z,10.03
2018-12-30T20:57:05.940Z,10.57
2018-12-30T20:59:34.522Z,9.83
2018-12-30T21:02:02.834Z,10.20
2018-12-30T21:04:31.176Z,11.93
2018-12-30T21:06:59.626Z,13.00
2018-12-30T21:09:27.845Z,9.00
2018-12-30T21:11:56.157Z,10.40
2018-12-30T21:14:24.624Z,14.40
2018-12-30T21:16:52.891Z,15.17
2018-12-30T21:19:21.373Z,15.80
2018-12-30T21:21:49.836Z,16.73
2018-12-30T21:24:18.152Z,16.93
2018-12-30T21:26:46.680Z,18.07
2018-12-30T21:29:15.173Z,17.00
2018-12-30T21:31:43.479Z,14.63
2018-12-30T21:34:11.826Z,13.17
2018-12-30T21:36:40.294Z,11.83
2018-12-30T21:39:08.774Z,11.10
2018-12-30T21:41:37.291Z,9.87
2018-12-30T21:44:05.772Z,7.80
2018-12-30T21:46:34.163Z,6.60
2018-12-30T21:49:02.699Z,6.80
2018-12-30T21:51:31.190Z,6.07
2018-12-30T21:53:59.493Z,6.47
2018-12-30T21:56:27.873Z,5.47
2018-12-30T21:58:56.476Z,4.73
2018-12-30T22:01:24.720Z,4.40
2018-12-30T22:03:53.169Z,3.53
2018-12-30T22:06:21.751Z,3.40
2018-12-30T22:08:50.265Z,3.37
2018-12-30T22:11:18.609Z,2.93
2018-12-30T22:13:46.860Z,2.80
2018-12-30T22:16:15.366Z,2.80
2018-12-30T22:18:43.768Z,3.10
2018-12-30T22:21:12.224Z,3.27
2018-12-30T22:23:40.809Z,2.83
2018-12-30T22:26:09.287Z,2.77
2018-12-30T22:28:37.826Z,2.83
2018-12-30T22:31:06.089Z,3.03
2018-12-30T22:33:34.552Z,2.97
2018-12-30T22:36:03.026Z,2.47
2018-12-30T22:38:31.484Z,2.17
2018-12-30T22:41:00.067Z,2.10
2018-12-30T22:43:28.650Z,2.60
2018-12-30T22:45:57.151Z,2.90
2018-12-30T22:48:25.546Z,2.30
2018-12-30T22:50:54.035Z,2.50
2018-12-30T22:53:22.503Z,2.57
2018-12-30T22:55:50.880Z,2.50
2018-12-30T22:58:19.430Z,3.00
2018-12-30T23:00:57.549Z,2.60
2018-12-30T23:03:26.016Z,2.63
2018-12-30T23:05:54.332Z,2.33
2018-12-30T23:08:22.975Z,2.60
2018-12-30T23:10:54.732Z,2.80
2018-12-30T23:13:23.215Z,3.20
2018-12-30T23:15:51.553Z,3.33
2018-12-30T23:18:20.175Z,4.27
2018-12-30T23:20:48.797Z,3.50
2018-12-30T23:23:17.441Z,2.60
2018-12-30T23:25:47.978Z,3.23
2018-12-30T23:28:16.286Z,2.90
2018-12-30T23:30:44.931Z,3.23
2018-12-30T23:33:13.522Z,3.17
2018-12-30T23:35:41.830Z,2.97
2018-12-30T23:38:10.211Z,2.20
2018-12-30T23:40:38.552Z,2.90
2018-12-30T23:43:07.230Z,2.87
2018-12-30T23:45:35.735Z,3.33
2018-12-30T23:48:04.241Z,2.80
2018-12-30T23:50:32.491Z,2.07
2018-12-30T23:53:01.801Z,2.20
2018-12-30T23:55:30.155Z,3.27
2018-12-30T23:57:58.444Z,3.17
